This is the latest recevied weather packets stored in our database for station/object M7PDA-1. If no packets are shown the sender has not sent any weather packets the latest 1 day(s).
| Time | Temp. | Humidity | Pressure | Rain* | Wind** | Luminosity | Snow |
|---|---|---|---|---|---|---|---|
| 1778105487 | 6.67° C | 73% | 1017.1 hPa | - | - | - | - |
| 1778099181 | 8.33° C | 67% | 1016.8 hPa | - | - | - | - |
| 1778095578 | 9.44° C | 59% | 1016.4 hPa | - | - | - | - |
| 1778093776 | 10.56° C | 54% | 1016.3 hPa | - | - | - | - |
| 1778091074 | 11.67° C | 50% | 1016 hPa | - | - | - | - |
| 1778087471 | 13.33° C | 43% | 1015.9 hPa | - | - | - | - |
| 1778086570 | 14.44° C | 39% | 1015.9 hPa | - | - | - | - |
| 1778082967 | 15° C | 38% | 1016 hPa | - | - | - | - |
| 1778082066 | 15° C | 38% | 1016 hPa | - | - | - | - |
| 1778077562 | 14.44° C | 43% | 1016.4 hPa | - | - | - | - |
| 1778076661 | 13.33° C | 42% | 1016.5 hPa | - | - | - | - |
| 1778073058 | 15.56° C | 41% | 1016.6 hPa | - | - | - | - |
| 1778068554 | 13.89° C | 44% | 1016.9 hPa | - | - | - | - |
| 1778064951 | 13.33° C | 47% | 1017.4 hPa | - | - | - | - |
| 1778064050 | 12.78° C | 49% | 1017.3 hPa | - | - | - | - |
| 1778061348 | 11.67° C | 53% | 1017.6 hPa | - | - | - | - |
| 1778060447 | 11.67° C | 53% | 1017.7 hPa | - | - | - | - |
| 1778059546 | 11.11° C | 53% | 1017.7 hPa | - | - | - | - |
| 1778056843 | 10° C | 59% | 1017.8 hPa | - | - | - | - |
| 1778055942 | 10° C | 59% | 1017.8 hPa | - | - | - | - |
| 1778054141 | 8.89° C | 61% | 1017.8 hPa | - | - | - | - |
| 1778053240 | 8.89° C | 63% | 1017.7 hPa | - | - | - | - |
| 1778052339 | 8.89° C | 63% | 1017.8 hPa | - | - | - | - |
| 1778051438 | 8.33° C | 64% | 1017.8 hPa | - | - | - | - |
| 1778050538 | 7.78° C | 65% | 1017.7 hPa | - | - | - | - |
* Rain since midnight (hover to see other rain measurements)
** Current wind speed in m/s (hover to see current wind gust speed)